sensor_id;sensor_type;location;lat;lon;timestamp;pressure;altitude;pressure_sealevel;temperature
21336;BMP180;69435;52.670;13.544;2023-09-30T00:00:51;101280.00;;;21.00
21336;BMP180;69435;52.670;13.544;2023-09-30T00:03:38;101294.00;;;20.90
21336;BMP180;69435;52.670;13.544;2023-09-30T00:06:24;101295.00;;;20.90
21336;BMP180;69435;52.670;13.544;2023-09-30T00:09:10;101299.00;;;20.90
21336;BMP180;69435;52.670;13.544;2023-09-30T00:11:57;101293.00;;;20.90
21336;BMP180;69435;52.670;13.544;2023-09-30T00:14:43;101308.00;;;20.90
21336;BMP180;69435;52.670;13.544;2023-09-30T00:17:29;101328.00;;;20.90
21336;BMP180;69435;52.670;13.544;2023-09-30T00:20:15;101308.00;;;20.90
21336;BMP180;69435;52.670;13.544;2023-09-30T00:23:01;101335.00;;;20.80
21336;BMP180;69435;52.670;13.544;2023-09-30T00:25:47;101327.00;;;20.70
21336;BMP180;69435;52.670;13.544;2023-09-30T00:28:35;101341.00;;;20.60
21336;BMP180;69435;52.670;13.544;2023-09-30T00:31:21;101342.00;;;20.50
21336;BMP180;69435;52.670;13.544;2023-09-30T00:34:08;101345.00;;;20.50
21336;BMP180;69435;52.670;13.544;2023-09-30T00:36:54;101355.00;;;20.40
21336;BMP180;69435;52.670;13.544;2023-09-30T00:39:40;101363.00;;;20.30
21336;BMP180;69435;52.670;13.544;2023-09-30T00:42:26;101355.00;;;20.20
21336;BMP180;69435;52.670;13.544;2023-09-30T00:45:12;101356.00;;;20.10
21336;BMP180;69435;52.670;13.544;2023-09-30T00:47:58;101345.00;;;19.90
21336;BMP180;69435;52.670;13.544;2023-09-30T00:50:44;101375.00;;;19.80
21336;BMP180;69435;52.670;13.544;2023-09-30T00:53:31;101365.00;;;19.70
21336;BMP180;69435;52.670;13.544;2023-09-30T00:56:18;101382.00;;;19.70
21336;BMP180;69435;52.670;13.544;2023-09-30T00:59:05;101376.00;;;19.60
21336;BMP180;69435;52.670;13.544;2023-09-30T01:01:51;101383.00;;;19.50
21336;BMP180;69435;52.670;13.544;2023-09-30T01:04:37;101385.00;;;19.50
21336;BMP180;69435;52.670;13.544;2023-09-30T01:07:24;101390.00;;;19.40
21336;BMP180;69435;52.670;13.544;2023-09-30T01:10:10;101386.00;;;19.40
21336;BMP180;69435;52.670;13.544;2023-09-30T01:12:56;101383.00;;;19.40
21336;BMP180;69435;52.670;13.544;2023-09-30T01:15:42;101402.00;;;19.40
21336;BMP180;69435;52.670;13.544;2023-09-30T01:18:28;101395.00;;;19.30
21336;BMP180;69435;52.670;13.544;2023-09-30T01:21:14;101379.00;;;19.30
21336;BMP180;69435;52.670;13.544;2023-09-30T01:24:00;101417.00;;;19.20
21336;BMP180;69435;52.670;13.544;2023-09-30T01:26:46;101420.00;;;19.10
21336;BMP180;69435;52.670;13.544;2023-09-30T01:29:33;101411.00;;;19.10
21336;BMP180;69435;52.670;13.544;2023-09-30T01:32:19;101400.00;;;19.00
21336;BMP180;69435;52.670;13.544;2023-09-30T01:35:05;101430.00;;;18.90
21336;BMP180;69435;52.670;13.544;2023-09-30T01:37:51;101420.00;;;18.90
21336;BMP180;69435;52.670;13.544;2023-09-30T01:40:37;101424.00;;;18.80
21336;BMP180;69435;52.670;13.544;2023-09-30T01:43:23;101440.00;;;18.70
21336;BMP180;69435;52.670;13.544;2023-09-30T01:46:09;101430.00;;;18.70
21336;BMP180;69435;52.670;13.544;2023-09-30T01:48:55;101444.00;;;18.60
21336;BMP180;69435;52.670;13.544;2023-09-30T01:51:41;101443.00;;;18.50
21336;BMP180;69435;52.670;13.544;2023-09-30T01:54:27;101427.00;;;18.50
21336;BMP180;69435;52.670;13.544;2023-09-30T01:57:13;101436.00;;;18.40
21336;BMP180;69435;52.670;13.544;2023-09-30T01:59:59;101450.00;;;18.40
21336;BMP180;69435;52.670;13.544;2023-09-30T02:02:45;101456.00;;;18.30
21336;BMP180;69435;52.670;13.544;2023-09-30T02:05:31;101463.00;;;18.30
21336;BMP180;69435;52.670;13.544;2023-09-30T02:08:17;101465.00;;;18.20
21336;BMP180;69435;52.670;13.544;2023-09-30T02:11:04;101472.00;;;18.10
21336;BMP180;69435;52.670;13.544;2023-09-30T02:13:52;101478.00;;;18.00
21336;BMP180;69435;52.670;13.544;2023-09-30T02:16:38;101482.00;;;18.00
21336;BMP180;69435;52.670;13.544;2023-09-30T02:19:24;101491.00;;;18.00
21336;BMP180;69435;52.670;13.544;2023-09-30T02:22:13;101479.00;;;17.90
21336;BMP180;69435;52.670;13.544;2023-09-30T02:24:59;101473.00;;;17.70
21336;BMP180;69435;52.670;13.544;2023-09-30T02:27:44;101487.00;;;17.90
21336;BMP180;69435;52.670;13.544;2023-09-30T02:30:30;101494.00;;;17.80
21336;BMP180;69435;52.670;13.544;2023-09-30T02:33:16;101489.00;;;17.80
21336;BMP180;69435;52.670;13.544;2023-09-30T02:36:03;101457.00;;;17.70
21336;BMP180;69435;52.670;13.544;2023-09-30T02:38:51;101499.00;;;17.70
21336;BMP180;69435;52.670;13.544;2023-09-30T02:41:37;101494.00;;;17.60
21336;BMP180;69435;52.670;13.544;2023-09-30T02:44:23;101496.00;;;17.60
21336;BMP180;69435;52.670;13.544;2023-09-30T02:47:09;101497.00;;;17.50
21336;BMP180;69435;52.670;13.544;2023-09-30T02:49:57;101515.00;;;17.50
21336;BMP180;69435;52.670;13.544;2023-09-30T02:52:43;101515.00;;;17.40
21336;BMP180;69435;52.670;13.544;2023-09-30T02:55:29;101520.00;;;17.40
21336;BMP180;69435;52.670;13.544;2023-09-30T02:58:15;101527.00;;;17.30
21336;BMP180;69435;52.670;13.544;2023-09-30T03:01:01;101530.00;;;17.30
21336;BMP180;69435;52.670;13.544;2023-09-30T03:03:47;101533.00;;;17.20
21336;BMP180;69435;52.670;13.544;2023-09-30T03:06:34;101538.00;;;17.20
21336;BMP180;69435;52.670;13.544;2023-09-30T03:09:24;101534.00;;;17.20
21336;BMP180;69435;52.670;13.544;2023-09-30T03:12:11;101530.00;;;17.20
21336;BMP180;69435;52.670;13.544;2023-09-30T03:14:58;101538.00;;;17.10
21336;BMP180;69435;52.670;13.544;2023-09-30T03:17:44;101542.00;;;17.10
21336;BMP180;69435;52.670;13.544;2023-09-30T03:20:30;101552.00;;;17.10
21336;BMP180;69435;52.670;13.544;2023-09-30T03:23:16;101542.00;;;17.00
21336;BMP180;69435;52.670;13.544;2023-09-30T03:26:02;101538.00;;;17.00
21336;BMP180;69435;52.670;13.544;2023-09-30T03:28:48;101550.00;;;17.00
21336;BMP180;69435;52.670;13.544;2023-09-30T03:31:36;101550.00;;;16.90
21336;BMP180;69435;52.670;13.544;2023-09-30T03:34:22;101550.00;;;16.90
21336;BMP180;69435;52.670;13.544;2023-09-30T03:37:08;101553.00;;;16.90
21336;BMP180;69435;52.670;13.544;2023-09-30T03:39:55;101543.00;;;16.90
21336;BMP180;69435;52.670;13.544;2023-09-30T03:42:41;101542.00;;;16.80
21336;BMP180;69435;52.670;13.544;2023-09-30T03:45:28;101533.00;;;16.80
21336;BMP180;69435;52.670;13.544;2023-09-30T03:48:14;101544.00;;;16.70
21336;BMP180;69435;52.670;13.544;2023-09-30T03:51:09;101550.00;;;16.70
21336;BMP180;69435;52.670;13.544;2023-09-30T03:53:55;101543.00;;;16.70
21336;BMP180;69435;52.670;13.544;2023-09-30T03:56:41;101534.00;;;16.70
21336;BMP180;69435;52.670;13.544;2023-09-30T03:59:27;101563.00;;;16.70
21336;BMP180;69435;52.670;13.544;2023-09-30T04:02:13;101557.00;;;16.60
21336;BMP180;69435;52.670;13.544;2023-09-30T04:05:00;101571.00;;;16.60
21336;BMP180;69435;52.670;13.544;2023-09-30T04:07:51;101567.00;;;16.60
21336;BMP180;69435;52.670;13.544;2023-09-30T04:10:37;101570.00;;;16.60
21336;BMP180;69435;52.670;13.544;2023-09-30T04:13:22;101571.00;;;16.50
21336;BMP180;69435;52.670;13.544;2023-09-30T04:16:10;101567.00;;;16.50
21336;BMP180;69435;52.670;13.544;2023-09-30T04:18:56;101585.00;;;16.50
21336;BMP180;69435;52.670;13.544;2023-09-30T04:21:42;101569.00;;;16.40
21336;BMP180;69435;52.670;13.544;2023-09-30T04:24:28;101589.00;;;16.40
21336;BMP180;69435;52.670;13.544;2023-09-30T04:27:15;101590.00;;;16.30
21336;BMP180;69435;52.670;13.544;2023-09-30T04:30:02;101587.00;;;16.40
21336;BMP180;69435;52.670;13.544;2023-09-30T04:32:54;101592.00;;;16.30
21336;BMP180;69435;52.670;13.544;2023-09-30T04:35:40;101607.00;;;16.30
21336;BMP180;69435;52.670;13.544;2023-09-30T04:38:26;101603.00;;;16.30
21336;BMP180;69435;52.670;13.544;2023-09-30T04:41:12;101583.00;;;16.30
21336;BMP180;69435;52.670;13.544;2023-09-30T04:43:58;101591.00;;;16.30
21336;BMP180;69435;52.670;13.544;2023-09-30T04:46:44;101588.00;;;16.30
21336;BMP180;69435;52.670;13.544;2023-09-30T04:49:34;101574.00;;;16.20
21336;BMP180;69435;52.670;13.544;2023-09-30T04:52:20;101581.00;;;16.20
21336;BMP180;69435;52.670;13.544;2023-09-30T04:55:06;101598.00;;;16.20
21336;BMP180;69435;52.670;13.544;2023-09-30T04:57:53;101595.00;;;16.30
21336;BMP180;69435;52.670;13.544;2023-09-30T05:00:39;101586.00;;;16.30
21336;BMP180;69435;52.670;13.544;2023-09-30T05:03:25;101576.00;;;16.20
21336;BMP180;69435;52.670;13.544;2023-09-30T05:06:11;101584.00;;;16.30
21336;BMP180;69435;52.670;13.544;2023-09-30T05:08:58;101605.00;;;16.30
21336;BMP180;69435;52.670;13.544;2023-09-30T05:11:44;101601.00;;;16.30
21336;BMP180;69435;52.670;13.544;2023-09-30T05:14:31;101604.00;;;16.30
21336;BMP180;69435;52.670;13.544;2023-09-30T05:17:17;101617.00;;;16.30
21336;BMP180;69435;52.670;13.544;2023-09-30T05:20:04;101617.00;;;16.30
21336;BMP180;69435;52.670;13.544;2023-09-30T05:22:52;101614.00;;;16.20
21336;BMP180;69435;52.670;13.544;2023-09-30T05:25:39;101629.00;;;16.20
21336;BMP180;69435;52.670;13.544;2023-09-30T05:28:25;101615.00;;;16.30
21336;BMP180;69435;52.670;13.544;2023-09-30T05:31:13;101632.00;;;16.20
21336;BMP180;69435;52.670;13.544;2023-09-30T05:33:59;101624.00;;;16.30
21336;BMP180;69435;52.670;13.544;2023-09-30T05:36:45;101631.00;;;16.30
21336;BMP180;69435;52.670;13.544;2023-09-30T05:39:31;101634.00;;;16.30
21336;BMP180;69435;52.670;13.544;2023-09-30T05:42:17;101623.00;;;16.30
21336;BMP180;69435;52.670;13.544;2023-09-30T05:45:05;101632.00;;;16.30
21336;BMP180;69435;52.670;13.544;2023-09-30T05:47:53;101632.00;;;16.40
21336;BMP180;69435;52.670;13.544;2023-09-30T05:50:39;101653.00;;;16.40
21336;BMP180;69435;52.670;13.544;2023-09-30T05:53:25;101654.00;;;16.50
21336;BMP180;69435;52.670;13.544;2023-09-30T05:56:13;101655.00;;;16.50
21336;BMP180;69435;52.670;13.544;2023-09-30T05:59:00;101651.00;;;16.60
21336;BMP180;69435;52.670;13.544;2023-09-30T06:01:47;101660.00;;;16.60
21336;BMP180;69435;52.670;13.544;2023-09-30T06:04:32;101669.00;;;16.70
21336;BMP180;69435;52.670;13.544;2023-09-30T06:07:19;101675.00;;;16.80
21336;BMP180;69435;52.670;13.544;2023-09-30T06:10:06;101672.00;;;16.80
21336;BMP180;69435;52.670;13.544;2023-09-30T06:12:53;101680.00;;;16.90
21336;BMP180;69435;52.670;13.544;2023-09-30T06:15:41;101674.00;;;17.00
21336;BMP180;69435;52.670;13.544;2023-09-30T06:18:27;101676.00;;;17.10
21336;BMP180;69435;52.670;13.544;2023-09-30T06:21:14;101687.00;;;17.20
21336;BMP180;69435;52.670;13.544;2023-09-30T06:24:02;101681.00;;;17.40
21336;BMP180;69435;52.670;13.544;2023-09-30T06:26:48;101688.00;;;17.50
21336;BMP180;69435;52.670;13.544;2023-09-30T06:29:34;101686.00;;;17.70
21336;BMP180;69435;52.670;13.544;2023-09-30T06:32:20;101694.00;;;17.80
21336;BMP180;69435;52.670;13.544;2023-09-30T06:35:08;101696.00;;;17.90
21336;BMP180;69435;52.670;13.544;2023-09-30T06:37:56;101695.00;;;18.00
21336;BMP180;69435;52.670;13.544;2023-09-30T06:40:42;101687.00;;;18.10
21336;BMP180;69435;52.670;13.544;2023-09-30T06:43:28;101688.00;;;18.10
21336;BMP180;69435;52.670;13.544;2023-09-30T06:46:14;101704.00;;;18.20
21336;BMP180;69435;52.670;13.544;2023-09-30T06:49:01;101710.00;;;18.20
21336;BMP180;69435;52.670;13.544;2023-09-30T06:51:47;101686.00;;;18.30
21336;BMP180;69435;52.670;13.544;2023-09-30T06:54:33;101693.00;;;18.30
21336;BMP180;69435;52.670;13.544;2023-09-30T06:57:19;101695.00;;;18.40
21336;BMP180;69435;52.670;13.544;2023-09-30T07:00:13;101714.00;;;18.60
21336;BMP180;69435;52.670;13.544;2023-09-30T07:02:59;101699.00;;;18.80
21336;BMP180;69435;52.670;13.544;2023-09-30T07:05:46;101715.00;;;19.30
21336;BMP180;69435;52.670;13.544;2023-09-30T07:08:35;101715.00;;;19.80
21336;BMP180;69435;52.670;13.544;2023-09-30T07:11:31;101708.00;;;20.40
21336;BMP180;69435;52.670;13.544;2023-09-30T07:14:20;101729.00;;;20.80
21336;BMP180;69435;52.670;13.544;2023-09-30T07:17:06;101731.00;;;21.20
21336;BMP180;69435;52.670;13.544;2023-09-30T07:19:52;101735.00;;;21.40
21336;BMP180;69435;52.670;13.544;2023-09-30T07:22:38;101748.00;;;21.50
21336;BMP180;69435;52.670;13.544;2023-09-30T07:25:23;101727.00;;;21.50
21336;BMP180;69435;52.670;13.544;2023-09-30T07:28:09;101746.00;;;21.50
21336;BMP180;69435;52.670;13.544;2023-09-30T07:30:57;101733.00;;;21.50
21336;BMP180;69435;52.670;13.544;2023-09-30T07:33:43;101765.00;;;21.60
21336;BMP180;69435;52.670;13.544;2023-09-30T07:36:29;101761.00;;;21.80
21336;BMP180;69435;52.670;13.544;2023-09-30T07:39:15;101768.00;;;21.90
21336;BMP180;69435;52.670;13.544;2023-09-30T07:42:02;101760.00;;;22.00
21336;BMP180;69435;52.670;13.544;2023-09-30T07:44:48;101756.00;;;21.90
21336;BMP180;69435;52.670;13.544;2023-09-30T07:47:34;101752.00;;;21.90
21336;BMP180;69435;52.670;13.544;2023-09-30T07:50:20;101748.00;;;21.80
21336;BMP180;69435;52.670;13.544;2023-09-30T07:53:06;101775.00;;;21.80
21336;BMP180;69435;52.670;13.544;2023-09-30T07:55:52;101765.00;;;21.80
21336;BMP180;69435;52.670;13.544;2023-09-30T07:58:40;101779.00;;;21.70
21336;BMP180;69435;52.670;13.544;2023-09-30T08:01:26;101782.00;;;21.60
21336;BMP180;69435;52.670;13.544;2023-09-30T08:04:12;101778.00;;;21.50
21336;BMP180;69435;52.670;13.544;2023-09-30T08:06:58;101771.00;;;21.40
21336;BMP180;69435;52.670;13.544;2023-09-30T08:09:44;101787.00;;;21.40
21336;BMP180;69435;52.670;13.544;2023-09-30T08:12:30;101785.00;;;21.30
21336;BMP180;69435;52.670;13.544;2023-09-30T08:15:16;101789.00;;;21.30
21336;BMP180;69435;52.670;13.544;2023-09-30T08:18:03;101790.00;;;21.30
21336;BMP180;69435;52.670;13.544;2023-09-30T08:20:51;101777.00;;;21.30
21336;BMP180;69435;52.670;13.544;2023-09-30T08:23:37;101800.00;;;21.30
21336;BMP180;69435;52.670;13.544;2023-09-30T08:26:24;101788.00;;;21.30
21336;BMP180;69435;52.670;13.544;2023-09-30T08:29:11;101808.00;;;21.30
21336;BMP180;69435;52.670;13.544;2023-09-30T08:31:57;101814.00;;;21.40
21336;BMP180;69435;52.670;13.544;2023-09-30T08:34:43;101816.00;;;21.50
21336;BMP180;69435;52.670;13.544;2023-09-30T08:37:30;101793.00;;;21.60
21336;BMP180;69435;52.670;13.544;2023-09-30T08:40:21;101792.00;;;21.70
21336;BMP180;69435;52.670;13.544;2023-09-30T08:43:11;101796.00;;;21.80
21336;BMP180;69435;52.670;13.544;2023-09-30T08:45:58;101814.00;;;21.90
21336;BMP180;69435;52.670;13.544;2023-09-30T08:48:48;101798.00;;;21.90
21336;BMP180;69435;52.670;13.544;2023-09-30T08:51:35;101799.00;;;22.00
21336;BMP180;69435;52.670;13.544;2023-09-30T08:54:22;101795.00;;;21.90
21336;BMP180;69435;52.670;13.544;2023-09-30T08:57:13;101799.00;;;22.00
21336;BMP180;69435;52.670;13.544;2023-09-30T09:00:00;101805.00;;;22.00
21336;BMP180;69435;52.670;13.544;2023-09-30T09:02:46;101797.00;;;22.40
21336;BMP180;69435;52.670;13.544;2023-09-30T09:05:33;101784.00;;;23.00
21336;BMP180;69435;52.670;13.544;2023-09-30T09:08:19;101798.00;;;23.60
21336;BMP180;69435;52.670;13.544;2023-09-30T09:11:09;101805.00;;;24.10
21336;BMP180;69435;52.670;13.544;2023-09-30T09:13:55;101799.00;;;24.50
21336;BMP180;69435;52.670;13.544;2023-09-30T09:16:53;101797.00;;;25.00
21336;BMP180;69435;52.670;13.544;2023-09-30T09:19:40;101805.00;;;25.50
21336;BMP180;69435;52.670;13.544;2023-09-30T09:22:42;101807.00;;;26.20
21336;BMP180;69435;52.670;13.544;2023-09-30T09:25:28;101807.00;;;26.70
21336;BMP180;69435;52.670;13.544;2023-09-30T09:28:15;101803.00;;;27.10
21336;BMP180;69435;52.670;13.544;2023-09-30T09:31:01;101803.00;;;27.40
21336;BMP180;69435;52.670;13.544;2023-09-30T09:33:48;101796.00;;;27.80
21336;BMP180;69435;52.670;13.544;2023-09-30T09:36:45;101794.00;;;28.30
21336;BMP180;69435;52.670;13.544;2023-09-30T09:39:31;101808.00;;;28.70
21336;BMP180;69435;52.670;13.544;2023-09-30T09:42:32;101797.00;;;29.00
21336;BMP180;69435;52.670;13.544;2023-09-30T09:45:18;101797.00;;;29.20
21336;BMP180;69435;52.670;13.544;2023-09-30T09:48:05;101804.00;;;29.40
21336;BMP180;69435;52.670;13.544;2023-09-30T09:50:51;101795.00;;;29.60
21336;BMP180;69435;52.670;13.544;2023-09-30T09:53:41;101768.00;;;29.80
21336;BMP180;69435;52.670;13.544;2023-09-30T09:56:27;101791.00;;;29.80
21336;BMP180;69435;52.670;13.544;2023-09-30T09:59:13;101799.00;;;29.80
21336;BMP180;69435;52.670;13.544;2023-09-30T10:02:00;101802.00;;;29.70
21336;BMP180;69435;52.670;13.544;2023-09-30T10:04:47;101809.00;;;29.50
21336;BMP180;69435;52.670;13.544;2023-09-30T10:07:38;101810.00;;;29.40
21336;BMP180;69435;52.670;13.544;2023-09-30T10:10:27;101817.00;;;29.30
21336;BMP180;69435;52.670;13.544;2023-09-30T10:13:51;101815.00;;;29.30
21336;BMP180;69435;52.670;13.544;2023-09-30T10:16:50;101795.00;;;29.00
21336;BMP180;69435;52.670;13.544;2023-09-30T10:20:03;101806.00;;;28.80
21336;BMP180;69435;52.670;13.544;2023-09-30T10:23:25;101812.00;;;28.60
21336;BMP180;69435;52.670;13.544;2023-09-30T10:29:09;101819.00;;;28.40
21336;BMP180;69435;52.670;13.544;2023-09-30T10:31:55;101816.00;;;28.30
21336;BMP180;69435;52.670;13.544;2023-09-30T10:34:51;101806.00;;;28.40
21336;BMP180;69435;52.670;13.544;2023-09-30T10:37:38;101815.00;;;28.40
21336;BMP180;69435;52.670;13.544;2023-09-30T10:40:29;101816.00;;;28.40
21336;BMP180;69435;52.670;13.544;2023-09-30T10:43:40;101801.00;;;28.40
21336;BMP180;69435;52.670;13.544;2023-09-30T10:49:29;101829.00;;;27.90
21336;BMP180;69435;52.670;13.544;2023-09-30T10:52:23;101818.00;;;27.50
21336;BMP180;69435;52.670;13.544;2023-09-30T10:55:19;101824.00;;;27.30
21336;BMP180;69435;52.670;13.544;2023-09-30T10:58:05;101826.00;;;27.20
21336;BMP180;69435;52.670;13.544;2023-09-30T11:00:55;101806.00;;;27.30
21336;BMP180;69435;52.670;13.544;2023-09-30T11:03:42;101819.00;;;27.30
21336;BMP180;69435;52.670;13.544;2023-09-30T11:06:28;101819.00;;;27.30
21336;BMP180;69435;52.670;13.544;2023-09-30T11:09:22;101806.00;;;27.40
21336;BMP180;69435;52.670;13.544;2023-09-30T11:12:13;101805.00;;;27.30
21336;BMP180;69435;52.670;13.544;2023-09-30T11:15:02;101784.00;;;27.10
21336;BMP180;69435;52.670;13.544;2023-09-30T11:17:52;101811.00;;;27.00
21336;BMP180;69435;52.670;13.544;2023-09-30T11:20:38;101819.00;;;26.90
21336;BMP180;69435;52.670;13.544;2023-09-30T11:23:24;101816.00;;;26.90
21336;BMP180;69435;52.670;13.544;2023-09-30T11:26:11;101806.00;;;26.90
21336;BMP180;69435;52.670;13.544;2023-09-30T11:29:08;101815.00;;;26.90
21336;BMP180;69435;52.670;13.544;2023-09-30T11:31:54;101813.00;;;26.70
21336;BMP180;69435;52.670;13.544;2023-09-30T11:34:41;101811.00;;;26.50
21336;BMP180;69435;52.670;13.544;2023-09-30T11:37:32;101808.00;;;26.50
21336;BMP180;69435;52.670;13.544;2023-09-30T11:40:19;101796.00;;;26.50
21336;BMP180;69435;52.670;13.544;2023-09-30T11:43:07;101795.00;;;26.60
21336;BMP180;69435;52.670;13.544;2023-09-30T11:46:08;101766.00;;;26.70
21336;BMP180;69435;52.670;13.544;2023-09-30T11:48:59;101791.00;;;26.60
21336;BMP180;69435;52.670;13.544;2023-09-30T11:51:48;101780.00;;;26.60
21336;BMP180;69435;52.670;13.544;2023-09-30T11:54:43;101790.00;;;26.50
21336;BMP180;69435;52.670;13.544;2023-09-30T11:57:30;101790.00;;;26.50
21336;BMP180;69435;52.670;13.544;2023-09-30T12:00:16;101788.00;;;26.50
21336;BMP180;69435;52.670;13.544;2023-09-30T12:03:03;101776.00;;;26.50
21336;BMP180;69435;52.670;13.544;2023-09-30T12:05:49;101789.00;;;26.50
21336;BMP180;69435;52.670;13.544;2023-09-30T12:08:35;101788.00;;;26.50
21336;BMP180;69435;52.670;13.544;2023-09-30T12:11:23;101799.00;;;26.50
21336;BMP180;69435;52.670;13.544;2023-09-30T12:14:13;101777.00;;;26.40
21336;BMP180;69435;52.670;13.544;2023-09-30T12:16:59;101777.00;;;26.20
21336;BMP180;69435;52.670;13.544;2023-09-30T12:19:45;101791.00;;;26.20
21336;BMP180;69435;52.670;13.544;2023-09-30T12:22:32;101776.00;;;26.10
21336;BMP180;69435;52.670;13.544;2023-09-30T12:25:18;101778.00;;;26.00
21336;BMP180;69435;52.670;13.544;2023-09-30T12:28:08;101772.00;;;25.90
21336;BMP180;69435;52.670;13.544;2023-09-30T12:30:54;101773.00;;;25.90
21336;BMP180;69435;52.670;13.544;2023-09-30T12:33:40;101773.00;;;25.90
21336;BMP180;69435;52.670;13.544;2023-09-30T12:36:26;101784.00;;;25.90
21336;BMP180;69435;52.670;13.544;2023-09-30T12:39:12;101775.00;;;25.80
21336;BMP180;69435;52.670;13.544;2023-09-30T12:41:58;101757.00;;;25.80
21336;BMP180;69435;52.670;13.544;2023-09-30T12:44:44;101742.00;;;25.70
21336;BMP180;69435;52.670;13.544;2023-09-30T12:47:30;101742.00;;;25.60
21336;BMP180;69435;52.670;13.544;2023-09-30T12:50:17;101752.00;;;25.50
21336;BMP180;69435;52.670;13.544;2023-09-30T12:53:03;101753.00;;;25.30
21336;BMP180;69435;52.670;13.544;2023-09-30T12:55:49;101765.00;;;25.10
21336;BMP180;69435;52.670;13.544;2023-09-30T12:58:35;101763.00;;;25.00
21336;BMP180;69435;52.670;13.544;2023-09-30T13:01:21;101773.00;;;24.80
21336;BMP180;69435;52.670;13.544;2023-09-30T13:04:08;101773.00;;;24.70
21336;BMP180;69435;52.670;13.544;2023-09-30T13:06:54;101761.00;;;24.60
21336;BMP180;69435;52.670;13.544;2023-09-30T13:09:41;101784.00;;;24.50
21336;BMP180;69435;52.670;13.544;2023-09-30T13:12:27;101772.00;;;24.40
21336;BMP180;69435;52.670;13.544;2023-09-30T13:15:13;101777.00;;;24.40
21336;BMP180;69435;52.670;13.544;2023-09-30T13:18:00;101773.00;;;24.30
21336;BMP180;69435;52.670;13.544;2023-09-30T13:20:47;101771.00;;;24.40
21336;BMP180;69435;52.670;13.544;2023-09-30T13:23:34;101749.00;;;24.30
21336;BMP180;69435;52.670;13.544;2023-09-30T13:26:20;101763.00;;;24.30
21336;BMP180;69435;52.670;13.544;2023-09-30T13:29:06;101773.00;;;24.20
21336;BMP180;69435;52.670;13.544;2023-09-30T13:31:55;101773.00;;;24.10
21336;BMP180;69435;52.670;13.544;2023-09-30T13:34:41;101774.00;;;24.00
21336;BMP180;69435;52.670;13.544;2023-09-30T13:37:27;101754.00;;;24.00
21336;BMP180;69435;52.670;13.544;2023-09-30T13:40:19;101749.00;;;23.90
21336;BMP180;69435;52.670;13.544;2023-09-30T13:43:05;101775.00;;;23.90
21336;BMP180;69435;52.670;13.544;2023-09-30T13:45:51;101758.00;;;23.90
21336;BMP180;69435;52.670;13.544;2023-09-30T13:48:37;101774.00;;;23.90
21336;BMP180;69435;52.670;13.544;2023-09-30T13:51:23;101763.00;;;23.90
21336;BMP180;69435;52.670;13.544;2023-09-30T13:54:08;101769.00;;;23.80
21336;BMP180;69435;52.670;13.544;2023-09-30T13:56:54;101766.00;;;23.80
21336;BMP180;69435;52.670;13.544;2023-09-30T13:59:41;101778.00;;;23.70
21336;BMP180;69435;52.670;13.544;2023-09-30T14:02:28;101766.00;;;23.60
21336;BMP180;69435;52.670;13.544;2023-09-30T14:05:14;101776.00;;;23.60
21336;BMP180;69435;52.670;13.544;2023-09-30T14:08:00;101779.00;;;23.50
21336;BMP180;69435;52.670;13.544;2023-09-30T14:10:47;101764.00;;;23.40
21336;BMP180;69435;52.670;13.544;2023-09-30T14:13:33;101774.00;;;23.40
21336;BMP180;69435;52.670;13.544;2023-09-30T14:16:19;101751.00;;;23.40
21336;BMP180;69435;52.670;13.544;2023-09-30T14:19:05;101774.00;;;23.30
21336;BMP180;69435;52.670;13.544;2023-09-30T14:21:51;101765.00;;;23.30
21336;BMP180;69435;52.670;13.544;2023-09-30T14:24:37;101756.00;;;23.20
21336;BMP180;69435;52.670;13.544;2023-09-30T14:27:23;101752.00;;;23.10
21336;BMP180;69435;52.670;13.544;2023-09-30T14:30:10;101753.00;;;23.10
21336;BMP180;69435;52.670;13.544;2023-09-30T14:32:57;101750.00;;;23.00
21336;BMP180;69435;52.670;13.544;2023-09-30T14:35:45;101755.00;;;22.90
21336;BMP180;69435;52.670;13.544;2023-09-30T14:38:31;101747.00;;;22.90
21336;BMP180;69435;52.670;13.544;2023-09-30T14:41:18;101726.00;;;22.90
21336;BMP180;69435;52.670;13.544;2023-09-30T14:44:04;101750.00;;;22.90
21336;BMP180;69435;52.670;13.544;2023-09-30T14:46:53;101743.00;;;22.80
21336;BMP180;69435;52.670;13.544;2023-09-30T14:49:41;101741.00;;;22.80
21336;BMP180;69435;52.670;13.544;2023-09-30T14:52:28;101733.00;;;22.70
21336;BMP180;69435;52.670;13.544;2023-09-30T14:55:14;101738.00;;;22.70
21336;BMP180;69435;52.670;13.544;2023-09-30T14:58:02;101723.00;;;22.60
21336;BMP180;69435;52.670;13.544;2023-09-30T15:00:48;101735.00;;;22.60
21336;BMP180;69435;52.670;13.544;2023-09-30T15:03:34;101725.00;;;22.60
21336;BMP180;69435;52.670;13.544;2023-09-30T15:06:22;101727.00;;;22.50
21336;BMP180;69435;52.670;13.544;2023-09-30T15:09:10;101730.00;;;22.50
21336;BMP180;69435;52.670;13.544;2023-09-30T15:11:57;101737.00;;;22.50
21336;BMP180;69435;52.670;13.544;2023-09-30T15:14:43;101725.00;;;22.50
21336;BMP180;69435;52.670;13.544;2023-09-30T15:17:30;101735.00;;;22.50
21336;BMP180;69435;52.670;13.544;2023-09-30T15:20:16;101727.00;;;22.40
21336;BMP180;69435;52.670;13.544;2023-09-30T15:23:02;101716.00;;;22.40
21336;BMP180;69435;52.670;13.544;2023-09-30T15:25:50;101714.00;;;22.40
21336;BMP180;69435;52.670;13.544;2023-09-30T15:28:37;101715.00;;;22.40
21336;BMP180;69435;52.670;13.544;2023-09-30T15:31:27;101714.00;;;22.40
21336;BMP180;69435;52.670;13.544;2023-09-30T15:34:15;101721.00;;;22.30
21336;BMP180;69435;52.670;13.544;2023-09-30T15:37:01;101730.00;;;22.30
21336;BMP180;69435;52.670;13.544;2023-09-30T15:39:48;101729.00;;;22.30
21336;BMP180;69435;52.670;13.544;2023-09-30T15:42:34;101737.00;;;22.20